Council, Idaho
Current Conditions -  °F | °C
As of 8:21 AM on Monday 24 Nov 2014 (Local Time) from KMYL Reporting Station
Haze Haze  
Wind Chill: 13°   Ceiling: 100
Heat Index: 13°   Visibility: 2mi
Dew Point:   Wind: 0mph
Humidity: 77%   Direction: NA
Pressure: 30.32"   Gusts: NA
Location:  44.73°N, 116.44°W
Report Text: KMYL 241521Z AUTO 00000KT 2SM HZ OVC001 M11/M14 A3032 RMK AO2 T11061139
Loading
Personal Weather Stations






























Interactive Weather Map New forecast layout! Learn more

10-Day Weather Forecast

Advertisements
Track Severe Weather on mobile